createdAt,value
2023-03-22T00:02:40.967Z,8.1
2023-03-22T00:07:40.532Z,3.5
2023-03-22T00:17:39.617Z,4.6
2023-03-22T00:22:41.653Z,1.9
2023-03-22T00:27:38.799Z,4.7
2023-03-22T00:32:38.279Z,5.2
2023-03-22T00:37:37.877Z,5.2
2023-03-22T00:42:37.386Z,1.3
2023-03-22T00:47:36.959Z,17.2
2023-03-22T00:57:36.085Z,6.3
2023-03-22T01:02:35.625Z,3.5
2023-03-22T01:07:35.197Z,3.5
2023-03-22T01:12:34.716Z,8.3
2023-03-22T01:17:34.248Z,1.4
2023-03-22T01:22:34.011Z,6.3
2023-03-22T01:27:33.334Z,3.7
2023-03-22T01:32:32.956Z,2.2
2023-03-22T01:37:32.508Z,3.2
2023-03-22T01:42:31.999Z,1.6
2023-03-22T01:47:31.496Z,2.8
2023-03-22T01:52:31.076Z,2.1
2023-03-22T01:57:33.079Z,0.9
2023-03-22T02:02:32.236Z,0.4
2023-03-22T02:07:29.714Z,1.0
2023-03-22T02:12:29.411Z,1.0
2023-03-22T02:17:28.858Z,6.6
2023-03-22T02:22:28.432Z,3.0
2023-03-22T02:27:27.931Z,0.5
2023-03-22T02:32:27.592Z,4.0
2023-03-22T02:37:27.122Z,2.6
2023-03-22T02:42:26.615Z,0.9
2023-03-22T02:47:26.122Z,0.7
2023-03-22T02:52:25.680Z,1.0
2023-03-22T02:57:25.192Z,0.9
2023-03-22T03:02:27.197Z,0.5
2023-03-22T03:12:23.862Z,0.9
2023-03-22T03:17:23.397Z,1.2
2023-03-22T03:22:22.934Z,0.5
2023-03-22T03:32:22.121Z,0.3
2023-03-22T03:37:21.556Z,0.7
2023-03-22T03:42:21.014Z,1.0
2023-03-22T03:47:20.668Z,0.7
2023-03-22T03:52:20.193Z,0.4
2023-03-22T03:57:21.844Z,1.9
2023-03-22T04:02:21.300Z,0.6
2023-03-22T04:07:18.781Z,1.2
2023-03-22T04:12:18.455Z,2.5
2023-03-22T04:17:17.868Z,0.8
2023-03-22T04:22:17.385Z,2.0
2023-03-22T04:27:17.024Z,0.4
2023-03-22T04:37:15.921Z,1.3
2023-03-22T04:42:15.433Z,1.2
2023-03-22T04:47:15.080Z,0.7
2023-03-22T04:57:14.073Z,2.7
2023-03-22T05:07:13.164Z,0.5
2023-03-22T05:12:12.694Z,1.0
2023-03-22T05:17:12.378Z,1.4
2023-03-22T05:22:11.817Z,0.5
2023-03-22T05:27:11.386Z,0.5
2023-03-22T05:32:10.918Z,0.6
2023-03-22T05:37:10.506Z,0.4
2023-03-22T05:42:10.140Z,0.5
2023-03-22T05:47:09.701Z,0.5
2023-03-22T05:57:08.776Z,0.3
2023-03-22T06:02:08.927Z,5.0
2023-03-22T06:12:07.444Z,0.4
2023-03-22T06:17:06.903Z,0.5
2023-03-22T06:22:06.474Z,0.6
2023-03-22T06:42:04.617Z,1.2
2023-03-22T06:47:04.195Z,1.6
2023-03-22T06:52:03.796Z,5.1
2023-03-22T06:57:03.362Z,0.8
2023-03-22T07:02:05.391Z,2.8
2023-03-22T07:07:02.476Z,8.8
2023-03-22T07:12:02.037Z,1.7
2023-03-22T07:32:00.401Z,12.4
2023-03-22T07:36:59.881Z,3.6
2023-03-22T07:41:59.468Z,7.0
2023-03-22T07:46:59.101Z,7.4
2023-03-22T07:51:58.568Z,11.3
2023-03-22T07:56:58.088Z,8.4
2023-03-22T08:06:59.746Z,13.7
2023-03-22T08:11:58.543Z,6.7
2023-03-22T08:16:58.407Z,7.7
2023-03-22T08:21:55.934Z,3.3
2023-03-22T08:26:55.566Z,9.5
2023-03-22T08:31:55.142Z,6.6
2023-03-22T08:36:54.651Z,3.8
2023-03-22T08:41:54.228Z,4.4
2023-03-22T08:46:53.856Z,5.4
2023-03-22T08:51:55.477Z,8.6
2023-03-22T08:56:52.908Z,4.4
2023-03-22T09:01:52.601Z,10.5
2023-03-22T09:06:54.130Z,12.6
2023-03-22T09:11:53.888Z,6.3
2023-03-22T09:16:51.321Z,9.9
2023-03-22T09:21:51.047Z,6.4
2023-03-22T09:26:50.635Z,9.1
2023-03-22T09:31:50.290Z,9.1
2023-03-22T09:36:50.010Z,9.1
2023-03-22T09:41:49.690Z,7.8
2023-03-22T09:46:51.473Z,12.9
2023-03-22T09:51:49.202Z,8.8
2023-03-22T09:56:48.852Z,6.7
2023-03-22T10:01:48.946Z,8.2
2023-03-22T10:06:48.342Z,4.6
2023-03-22T10:11:50.138Z,8.2
2023-03-22T10:16:47.871Z,8.2
2023-03-22T10:26:47.445Z,6.4
2023-03-22T10:31:47.299Z,9.7
2023-03-22T10:36:46.986Z,9.7
2023-03-22T10:41:46.811Z,10.2
2023-03-22T10:46:46.639Z,8.0
2023-03-22T10:51:46.372Z,3.8
2023-03-22T10:56:46.311Z,5.1
2023-03-22T11:01:46.245Z,8.1
2023-03-22T11:06:45.787Z,12.5
2023-03-22T11:11:45.673Z,14.7
2023-03-22T11:16:45.428Z,6.7
2023-03-22T11:21:45.138Z,4.9
2023-03-22T11:26:44.994Z,5.7
2023-03-22T11:31:44.879Z,6.9
2023-03-22T11:36:44.815Z,5.0
2023-03-22T11:41:44.621Z,6.4
2023-03-22T11:46:44.550Z,5.2
2023-03-22T11:51:44.496Z,4.7
2023-03-22T11:56:44.339Z,7.3
2023-03-22T12:01:44.295Z,6.2
2023-03-22T12:06:44.176Z,9.2
2023-03-22T12:11:44.104Z,4.2
2023-03-22T12:16:44.007Z,8.3
2023-03-22T12:21:44.125Z,10.2
2023-03-22T12:36:43.640Z,3.3
2023-03-22T12:41:43.536Z,6.2
2023-03-22T12:46:43.445Z,4.3
2023-03-22T12:51:43.334Z,6.8
2023-03-22T12:56:43.122Z,5.0
2023-03-22T13:01:43.041Z,8.4
2023-03-22T13:06:42.832Z,5.6
2023-03-22T13:11:42.772Z,7.5
2023-03-22T13:16:42.576Z,2.5
2023-03-22T13:21:42.525Z,6.5
2023-03-22T13:26:42.279Z,5.3
2023-03-22T13:41:41.807Z,8.8
2023-03-22T13:46:44.076Z,4.9
2023-03-22T13:51:41.453Z,5.9
2023-03-22T13:56:41.237Z,5.1
2023-03-22T14:01:41.110Z,7.1
2023-03-22T14:06:40.922Z,7.6
2023-03-22T14:11:40.764Z,5.1
2023-03-22T14:16:40.564Z,6.9
2023-03-22T14:21:40.742Z,9.7
2023-03-22T14:56:40.942Z,3.7
2023-03-22T15:01:40.827Z,5.8
2023-03-22T15:06:38.622Z,3.8
2023-03-22T15:11:38.673Z,5.2
2023-03-22T15:16:38.316Z,9.6
2023-03-22T15:21:40.057Z,5.1
2023-03-22T15:26:37.664Z,12.7
2023-03-22T15:36:37.231Z,9.6
2023-03-22T15:41:38.518Z,8.5
2023-03-22T15:46:36.725Z,9.1
2023-03-22T15:51:38.474Z,3.4
2023-03-22T15:56:40.289Z,3.9
2023-03-22T16:01:36.044Z,4.5
2023-03-22T16:06:35.686Z,7.1
2023-03-22T16:11:35.405Z,5.4
2023-03-22T16:16:35.071Z,6.1
2023-03-22T16:21:34.779Z,9.3
2023-03-22T16:26:34.443Z,3.9
2023-03-22T16:31:34.789Z,3.7
2023-03-22T16:36:33.974Z,5.5
2023-03-22T16:41:33.593Z,13.4
2023-03-22T16:46:33.276Z,4.4
2023-03-22T16:51:32.989Z,12.0
2023-03-22T16:56:32.606Z,4.8
2023-03-22T17:01:32.328Z,5.9
2023-03-22T17:06:32.041Z,5.9
2023-03-22T17:11:31.761Z,5.8
2023-03-22T17:21:31.165Z,4.7
2023-03-22T17:26:32.985Z,8.7
2023-03-22T17:31:30.353Z,10.4
2023-03-22T17:36:29.949Z,10.4
2023-03-22T17:41:29.653Z,8.3
2023-03-22T17:47:05.551Z,10.8
2023-03-22T17:51:29.053Z,8.7
2023-03-22T17:57:01.157Z,3.2
2023-03-22T18:06:27.903Z,2.9
2023-03-22T18:11:27.481Z,1.0
2023-03-22T18:16:53.133Z,2.0
2023-03-22T18:26:29.600Z,2.1
2023-03-22T18:31:25.779Z,4.1
2023-03-22T18:36:25.333Z,5.2
2023-03-22T18:46:24.416Z,5.6
2023-03-22T18:51:23.901Z,23.5
2023-03-22T18:56:23.434Z,18.7
2023-03-22T19:01:22.961Z,18.7
2023-03-22T19:06:22.544Z,17.7
2023-03-22T19:11:22.136Z,10.7
2023-03-22T19:16:21.703Z,7.1
2023-03-22T19:21:31.903Z,8.8
2023-03-22T19:26:20.827Z,9.3
2023-03-22T19:31:20.424Z,5.8
2023-03-22T19:36:22.556Z,9.9
2023-03-22T19:41:42.956Z,9.3
2023-03-22T19:46:19.130Z,10.5
2023-03-22T19:51:18.727Z,10.5
2023-03-22T20:06:17.266Z,5.5
2023-03-22T20:11:29.712Z,9.5
2023-03-22T20:16:16.410Z,11.6
2023-03-22T20:21:15.853Z,11.6
2023-03-22T20:26:15.459Z,14.5
2023-03-22T20:31:17.041Z,9.7
2023-03-22T20:36:14.566Z,16.8
2023-03-22T20:41:16.471Z,16.8
2023-03-22T20:46:13.663Z,29.7
2023-03-22T20:51:13.234Z,65.6
2023-03-22T20:56:27.484Z,54.0
2023-03-22T20:56:35.220Z,54.0
2023-03-22T20:56:35.863Z,54.0
2023-03-22T21:01:12.259Z,117.6
2023-03-22T21:06:11.799Z,190.6
2023-03-22T21:11:11.286Z,214.9
2023-03-22T21:16:10.849Z,157.7
2023-03-22T21:21:10.388Z,123.7
2023-03-22T21:26:10.018Z,157.1
2023-03-22T21:31:09.587Z,188.4
2023-03-22T21:36:09.269Z,225.6
2023-03-22T21:41:08.652Z,260.4
2023-03-22T21:46:08.217Z,230.6
2023-03-22T21:51:07.680Z,48.2
2023-03-22T21:56:07.142Z,40.2
2023-03-22T22:01:06.690Z,100.3
2023-03-22T22:06:06.109Z,96.2
2023-03-22T22:11:05.782Z,26.6
2023-03-22T22:16:05.139Z,17.3
2023-03-22T22:21:04.593Z,39.3
2023-03-22T22:26:04.011Z,25.9
2023-03-22T22:31:03.517Z,17.7
2023-03-22T22:36:02.964Z,18.3
2023-03-22T22:41:02.585Z,10.6
2023-03-22T22:46:01.992Z,23.1
2023-03-22T22:51:01.504Z,4.4
2023-03-22T22:56:00.937Z,5.5
2023-03-22T23:01:02.723Z,6.7
2023-03-22T23:05:59.930Z,4.4
2023-03-22T23:10:59.452Z,10.5
2023-03-22T23:15:58.817Z,2.5
2023-03-22T23:20:58.339Z,18.2
2023-03-22T23:25:57.762Z,55.5
2023-03-22T23:30:57.268Z,76.3
2023-03-22T23:35:56.906Z,99.8
2023-03-22T23:40:56.211Z,216.0
2023-03-22T23:45:55.705Z,128.8
2023-03-22T23:50:55.167Z,102.8
2023-03-22T23:55:54.688Z,129.1
